Pettigrew, Arkansas
Current Conditions -  °F | °C
As of 5:30 AM on Thursday 18 Dec 2014 (Local Time) from KFYV Reporting Station
Overcast Overcast  
Wind Chill: 36°   Ceiling: 1400
Heat Index: 36°   Visibility: 10mi
Dew Point: 35°   Wind: 3mph
Humidity: 97%   Direction: 150°SSE
Pressure: 30.14"   Gusts: NA
Location:  35.82°N, 93.65°W
Report Text: KFYV 181130Z 15003KT 10SM OVC014 02/02 A3014 RMK AO2 T00220017
Loading
Personal Weather Stations






























Interactive Weather Map New forecast layout! Learn more

10-Day Weather Forecast

Advertisements
Track Severe Weather on mobile